createdAt,value
2022-10-28T00:03:06.199Z,8.93
2022-10-28T00:08:10.232Z,8.80
2022-10-28T00:13:13.824Z,8.66
2022-10-28T00:18:17.521Z,8.69
2022-10-28T00:23:20.865Z,8.74
2022-10-28T00:28:24.842Z,8.69
2022-10-28T00:33:28.941Z,8.63
2022-10-28T00:38:33.775Z,8.42
2022-10-28T00:43:50.194Z,8.23
2022-10-28T00:49:06.608Z,8.11
2022-10-28T00:54:11.751Z,8.11
2022-10-28T00:59:26.416Z,8.15
2022-10-28T01:04:30.557Z,8.13
2022-10-28T01:09:35.204Z,8.08
2022-10-28T01:15:11.667Z,8.13
2022-10-28T01:20:25.871Z,8.21
2022-10-28T01:26:07.764Z,8.23
2022-10-28T01:31:35.302Z,8.26
2022-10-28T01:36:55.756Z,8.07
2022-10-28T01:42:25.257Z,7.96
2022-10-28T01:47:38.229Z,8.06
2022-10-28T01:52:44.979Z,8.14
2022-10-28T01:57:53.282Z,7.98
2022-10-28T02:02:57.531Z,7.92
2022-10-28T02:08:25.016Z,7.95
2022-10-28T02:13:46.984Z,7.92
2022-10-28T02:19:07.267Z,7.84
2022-10-28T02:24:40.409Z,7.74
2022-10-28T02:30:02.083Z,7.58
2022-10-28T02:35:15.529Z,7.54
2022-10-28T02:40:25.918Z,7.51
2022-10-28T02:45:40.390Z,7.51
2022-10-28T02:50:51.497Z,7.52
2022-10-28T02:56:01.644Z,7.58
2022-10-28T03:01:06.406Z,7.68
2022-10-28T03:06:11.305Z,7.79
2022-10-28T03:11:16.245Z,7.84
2022-10-28T03:16:20.021Z,7.92
2022-10-28T03:21:23.564Z,7.97
2022-10-28T03:26:26.910Z,8.14
2022-10-28T03:31:31.007Z,8.32
2022-10-28T03:36:35.534Z,8.54
2022-10-28T03:41:40.212Z,8.73
2022-10-28T03:46:44.606Z,8.87
2022-10-28T03:51:49.293Z,8.97
2022-10-28T03:56:53.874Z,9.04
2022-10-28T04:01:59.421Z,9.13
2022-10-28T04:07:05.047Z,9.19
2022-10-28T04:12:12.110Z,9.17
2022-10-28T04:17:16.014Z,9.14
2022-10-28T04:22:19.702Z,9.20
2022-10-28T04:27:23.864Z,9.21
2022-10-28T04:32:27.531Z,9.21
2022-10-28T04:37:31.063Z,9.20
2022-10-28T04:42:35.022Z,9.26
2022-10-28T04:47:38.509Z,9.34
2022-10-28T04:52:41.787Z,9.37
2022-10-28T04:57:45.813Z,9.40
2022-10-28T05:02:49.306Z,9.45
2022-10-28T05:07:52.834Z,9.49
2022-10-28T05:12:56.583Z,9.42
2022-10-28T05:18:01.003Z,9.38
2022-10-28T05:23:04.660Z,9.37
2022-10-28T05:29:16.942Z,9.37
2022-10-28T05:34:27.683Z,9.40
2022-10-28T05:39:30.817Z,9.36
2022-10-28T05:44:34.007Z,9.30
2022-10-28T05:49:46.812Z,9.29
2022-10-28T05:54:57.770Z,9.33
2022-10-28T06:00:01.305Z,9.38
2022-10-28T06:05:05.848Z,9.47
2022-10-28T06:10:11.500Z,9.52
2022-10-28T06:15:15.936Z,9.56
2022-10-28T06:20:20.472Z,9.60
2022-10-28T06:25:26.206Z,9.63
2022-10-28T06:30:29.640Z,9.66
2022-10-28T06:35:33.113Z,9.78
2022-10-28T06:40:37.637Z,10.11
2022-10-28T06:45:41.183Z,10.63
2022-10-28T06:50:46.367Z,11.02
2022-10-28T06:55:57.581Z,11.50
2022-10-28T07:01:06.054Z,11.76
2022-10-28T07:06:20.267Z,11.69
2022-10-28T07:11:24.573Z,11.84
2022-10-28T07:16:28.552Z,12.15
2022-10-28T07:21:33.007Z,12.40
2022-10-28T07:27:33.650Z,12.61
2022-10-28T07:32:55.174Z,12.93
2022-10-28T07:37:59.244Z,13.00
2022-10-28T07:43:02.844Z,13.13
2022-10-28T07:48:07.569Z,13.08
2022-10-28T07:53:11.033Z,12.88
2022-10-28T07:58:14.544Z,12.71
2022-10-28T08:03:18.166Z,12.77
2022-10-28T08:08:21.434Z,12.86
2022-10-28T08:13:25.595Z,12.91
2022-10-28T08:18:28.841Z,13.08
2022-10-28T08:23:32.244Z,13.38
2022-10-28T08:28:35.656Z,13.72
2022-10-28T08:33:42.559Z,14.10
2022-10-28T08:38:47.343Z,14.46
2022-10-28T08:44:06.646Z,14.72
2022-10-28T08:49:14.944Z,15.03
2022-10-28T08:54:26.127Z,15.26
2022-10-28T08:59:42.891Z,15.42
2022-10-28T09:04:48.386Z,15.66
2022-10-28T09:09:56.901Z,15.90
2022-10-28T09:15:27.809Z,16.11
2022-10-28T09:20:44.774Z,16.39
2022-10-28T09:26:07.488Z,16.54
2022-10-28T09:31:21.686Z,16.61
2022-10-28T09:36:37.736Z,16.67
2022-10-28T09:41:45.370Z,16.87
2022-10-28T09:47:00.420Z,17.16
2022-10-28T09:52:15.263Z,17.47
2022-10-28T09:57:21.496Z,17.67
2022-10-28T10:02:28.365Z,17.88
2022-10-28T10:07:38.954Z,18.10
2022-10-28T10:12:45.534Z,18.32
2022-10-28T10:17:53.674Z,18.58
2022-10-28T10:22:58.067Z,18.78
2022-10-28T10:28:05.057Z,18.97
2022-10-28T10:33:23.771Z,19.17
2022-10-28T10:38:30.655Z,19.38
2022-10-28T10:43:38.415Z,19.48
2022-10-28T10:48:45.197Z,19.58
2022-10-28T10:53:51.599Z,19.65
2022-10-28T10:58:59.281Z,19.75
2022-10-28T11:04:07.954Z,19.89
2022-10-28T11:09:19.969Z,20.00
2022-10-28T11:14:25.445Z,20.13
2022-10-28T11:19:37.040Z,20.19
2022-10-28T11:24:47.775Z,20.26
2022-10-28T11:29:51.354Z,20.33
2022-10-28T11:35:37.289Z,20.38
2022-10-28T11:41:11.191Z,20.47
2022-10-28T11:46:40.391Z,20.51
2022-10-28T11:52:02.563Z,20.56
2022-10-28T11:57:17.931Z,20.64
2022-10-28T12:02:52.412Z,20.66
2022-10-28T12:08:18.986Z,20.68
2022-10-28T12:13:41.807Z,20.71
2022-10-28T12:18:55.152Z,20.65
2022-10-28T12:23:59.753Z,20.57
2022-10-28T12:29:09.871Z,20.45
2022-10-28T12:34:21.379Z,20.49
2022-10-28T12:39:26.164Z,20.65
2022-10-28T12:44:34.140Z,20.75
2022-10-28T12:49:46.464Z,20.69
2022-10-28T12:54:59.715Z,20.62
2022-10-28T13:00:25.202Z,20.50
2022-10-28T13:05:42.636Z,20.35
2022-10-28T13:10:57.519Z,20.26
2022-10-28T13:16:24.215Z,20.19
2022-10-28T13:21:49.329Z,20.20
2022-10-28T13:26:55.634Z,20.33
2022-10-28T13:32:01.101Z,20.53
2022-10-28T13:37:16.572Z,20.68
2022-10-28T13:42:23.941Z,20.73
2022-10-28T13:47:36.529Z,20.76
2022-10-28T13:52:42.633Z,20.76
2022-10-28T13:57:49.137Z,20.75
2022-10-28T14:02:56.085Z,20.74
2022-10-28T14:08:07.471Z,20.75
2022-10-28T14:13:21.980Z,20.70
2022-10-28T14:18:44.153Z,20.57
2022-10-28T14:24:09.637Z,20.36
2022-10-28T14:29:33.297Z,20.05
2022-10-28T14:34:43.887Z,19.76
2022-10-28T14:40:09.340Z,19.57
2022-10-28T14:45:13.553Z,19.47
2022-10-28T14:50:22.671Z,19.32
2022-10-28T14:55:33.968Z,19.16
2022-10-28T15:00:46.786Z,18.96
2022-10-28T15:05:51.986Z,18.81
2022-10-28T15:10:56.840Z,18.70
2022-10-28T15:16:04.618Z,18.56
2022-10-28T15:21:11.135Z,18.42
2022-10-28T15:26:16.855Z,18.21
2022-10-28T15:31:21.004Z,18.04
2022-10-28T15:36:27.969Z,17.97
2022-10-28T15:41:45.941Z,17.90
2022-10-28T15:46:51.501Z,17.79
2022-10-28T15:52:17.373Z,17.66
2022-10-28T15:57:27.629Z,17.57
2022-10-28T16:02:42.839Z,17.51
2022-10-28T16:07:47.350Z,17.37
2022-10-28T16:12:51.761Z,17.31
2022-10-28T16:17:56.470Z,17.24
2022-10-28T16:23:02.919Z,17.10
2022-10-28T16:28:26.140Z,17.00
2022-10-28T16:33:34.443Z,16.88
2022-10-28T16:38:39.596Z,16.79
2022-10-28T16:43:44.345Z,16.74
2022-10-28T16:48:50.230Z,16.70
2022-10-28T16:53:54.345Z,16.65
2022-10-28T16:58:58.129Z,16.58
2022-10-28T17:04:01.984Z,16.53
2022-10-28T17:09:05.669Z,16.47
2022-10-28T17:14:10.194Z,16.40
2022-10-28T17:19:13.628Z,16.35
2022-10-28T17:24:17.137Z,16.28
2022-10-28T17:29:20.494Z,16.19
2022-10-28T17:34:24.050Z,16.12
2022-10-28T17:39:27.545Z,16.08
2022-10-28T17:44:31.144Z,16.05
2022-10-28T17:49:37.487Z,16.06
2022-10-28T17:54:40.806Z,16.00
2022-10-28T17:59:44.799Z,15.94
2022-10-28T18:04:49.725Z,15.91
2022-10-28T18:09:55.149Z,15.92
2022-10-28T18:14:58.950Z,15.91
2022-10-28T18:20:03.323Z,15.78
2022-10-28T18:25:09.059Z,15.68
2022-10-28T18:30:13.989Z,15.58
2022-10-28T18:35:18.712Z,15.52
2022-10-28T18:40:30.021Z,15.50
2022-10-28T18:45:36.160Z,15.49
2022-10-28T18:50:46.969Z,15.46
2022-10-28T18:55:54.821Z,15.44
2022-10-28T19:01:06.243Z,15.42
2022-10-28T19:06:18.416Z,15.45
2022-10-28T19:11:26.237Z,15.43
2022-10-28T19:16:44.502Z,15.35
2022-10-28T19:21:51.530Z,15.34
2022-10-28T19:26:56.395Z,15.31
2022-10-28T19:32:00.705Z,15.23
2022-10-28T19:37:05.246Z,15.20
2022-10-28T19:42:09.362Z,15.16
2022-10-28T19:47:16.704Z,15.15
2022-10-28T19:52:20.682Z,15.18
2022-10-28T19:57:25.563Z,15.19
2022-10-28T20:02:30.586Z,15.12
2022-10-28T20:07:34.892Z,15.02
2022-10-28T20:12:38.715Z,14.95
2022-10-28T20:17:46.935Z,14.92
2022-10-28T20:22:51.655Z,14.86
2022-10-28T20:27:55.651Z,14.86
2022-10-28T20:33:00.338Z,14.83
2022-10-28T20:38:04.422Z,14.81
2022-10-28T20:43:07.959Z,14.77
2022-10-28T20:48:12.607Z,14.68
2022-10-28T20:53:16.903Z,14.63
2022-10-28T20:58:22.987Z,14.57
2022-10-28T21:03:27.312Z,14.42
2022-10-28T21:08:31.377Z,14.35
2022-10-28T21:13:35.827Z,14.27
2022-10-28T21:18:41.041Z,14.14
2022-10-28T21:23:46.857Z,14.05
2022-10-28T21:28:52.770Z,13.96
2022-10-28T21:34:01.838Z,13.89
2022-10-28T21:39:10.567Z,13.81
2022-10-28T21:44:14.580Z,13.74
2022-10-28T21:49:18.705Z,13.70
2022-10-28T21:54:24.923Z,13.62
2022-10-28T21:59:32.867Z,13.62
2022-10-28T22:04:40.690Z,13.57
2022-10-28T22:09:49.834Z,13.52
2022-10-28T22:14:56.738Z,13.51
2022-10-28T22:20:02.497Z,13.47
2022-10-28T22:25:09.488Z,13.41
2022-10-28T22:30:16.509Z,13.37
2022-10-28T22:35:21.850Z,13.32
2022-10-28T22:40:26.924Z,13.28
2022-10-28T22:45:32.237Z,13.24
2022-10-28T22:50:36.693Z,13.22
2022-10-28T22:55:41.617Z,13.21
2022-10-28T23:00:47.394Z,13.19
2022-10-28T23:05:52.500Z,13.14
2022-10-28T23:10:58.619Z,13.09
2022-10-28T23:16:11.698Z,13.06
2022-10-28T23:21:23.125Z,13.05
2022-10-28T23:26:29.436Z,13.02
2022-10-28T23:31:35.105Z,12.95
2022-10-28T23:36:43.092Z,12.86
2022-10-28T23:41:49.136Z,12.81
2022-10-28T23:46:56.047Z,12.81
2022-10-28T23:52:01.208Z,12.75
2022-10-28T23:57:06.379Z,12.71
